Historyczne dane pomiarowe

Dodano dane terminowe – wersja testowa.

Dane z okresu 1951-2019

Wersja bazy: 1.34 [2019-03-16, lista zmian], aktualizacja planowana na 2019-04-15

Dane meteo z obszaru Polski uzyskane na podstawie danych udostępnionych przez Instytut Meteorologii i Gospodarki Wodnej – Państwowy Instytut Badawczy.

 

Wybierz Datę:    

       

TemperaturaWilgotnośćWiatrCiśnienieOpadyŚniegCzas trwania zjawisk
 Stacja t tx tn tng RH VA  wxwx mslp ppp RRR   cm mm wxwxwxwxwxwxwx
1963-10-11 10.0 11.6 7.9--- 7.7 2.7---- 0.6------------
1963-10-12 12.3 16.1 9.7--- 6.0 3.3---- 0.0------------
1963-10-13 14.9 21.4 9.5--- 2.3 3.0---- 0.7------------
1963-10-14 9.1 15.7 7.2--- 7.3 10.7---- 1.3------------
1963-10-15 6.3 8.3 4.4--- 5.3 4.0---- 1.6------------
1963-10-16 5.9 13.8 1.3--- 2.3 1.3---- 0.0------------
1963-10-17 8.7 14.9 -0.4--- 4.7 0.7---- 0.0------------
1963-10-18 9.8 10.5 7.2--- 8.0 2.0---- 0.6------------
1963-10-19 8.5 13.5 5.9--- 5.7 1.7---- 0.0------------
1963-10-20 6.9 16.4 -0.8--- 3.7 1.0---- 0.0------------
1963-10-21 10.3 17.0 1.5--- 6.0 1.3---- 0.0------------
1963-10-22 14.5 19.3 10.7--- 6.7 1.7---- 2.6------------
1963-10-23 8.3 15.0 7.2--- 8.0 2.7---- 7.5------------
1963-10-24 8.9 11.3 6.9--- 7.0 1.3---- 0.0------------
1963-10-25 8.7 11.1 7.2--- 8.0 1.7---- 0.0------------
1963-10-26 6.6 8.3 4.6--- 7.3 1.3---- 0.0------------
1963-10-27 7.2 8.8 5.7--- 8.0 0.0---- 0.0------------
1963-10-28 7.7 9.9 5.9--- 8.0 0.7---- 0.0------------
1963-10-29 6.2 11.6 3.3--- 3.0 0.7---- 0.0------------
1963-10-30 4.1 9.6 -0.6--- 4.3 1.7---- 0.0------------
1963-10-31 1.9 7.3 0.1--- 6.0 1.3---- 0.0------------
1963-11-01 7.9 12.9 -0.6--- 5.0 1.0---- 0.0------------
1963-11-02 9.5 13.0 8.2--- 8.0 1.0---- 4.8------------
1963-11-03 10.0 14.6 1.4--- 7.3 1.0---- 0.0------------
1963-11-04 12.4 16.2 9.2--- 6.7 1.7---- 0.5------------
1963-11-05 10.1 15.5 8.6--- 6.3 1.3---- 0.0------------
1963-11-06 13.8 20.7 4.1--- 3.0 1.7---- 0.0------------
1963-11-07 13.3 18.7 10.7--- 5.3 9.0---- 1.7------------
1963-11-08 10.8 12.4 8.2--- 4.7 5.0---- 0.0------------
1963-11-09 10.8 13.1 10.1--- 7.3 2.3---- 0.0------------
134.1 ms

 

Źródłem pochodzenia danych jest Instytut Meteorologii i Gospodarki Wodnej – Państwowy Instytut Badawczy. Dane Instytutu Meteorologii i Gospodarki Wodnej – Państwowego Instytutu Badawczego zostały przetworzone.

Dane źródłowe można odnaleźć na stronie https://dane.imgw.pl